Lambert, MT (59243)

10:58 AM MDT on October 23, 2014 (GMT -0600)
APRSWXNET Girard Hall MT US | Change Station
CLOSE
Current Station
Personal Weather Station
Location: Crane, MT
Elevation: 2267 ft
Nearby Weather Stations

Elev 2267 ft 47.87 °N, 104.35 °W | Updated 58 minutes ago

Partly Cloudy
Partly Cloudy
56 °F
Feels Like 56 °F
N
4
Wind Variable Wind from SSW
Gusts 0.0 mph

Today
High -- | Low -- °F
--% Chance of Precip.
Yesterday
High -- | Low -- °F
Precip. -- in
7:29 AM 5:55 PM
Waning Crescent, 0% visible
Pressure 29.85 in
Visibility 10.0 miles
Clouds Clear
Dew Point 36 °F
Humidity 47%
Rainfall -999.00 in
Snow Depth Not available.
UV 2 out of 12
Pollen 1.60 out of 12
Air Quality Not available.
Flu Activity No Activity
METAR KSDY 231635Z AUTO 17007KT 10SM CLR 10/02 A2985 RMK AO1

More Conditions Fewer Conditions

Pressure 29.85 in
Visibility 10.0 miles
Clouds Clear
Dew Point 36 °F
Humidity 47%
Rainfall -999.00 in
Snow Depth Not available.
UV 2 out of 12
Pollen 1.60 out of 12
Air Quality Not available.
Flu Activity No Activity
METAR KSDY 231635Z AUTO 17007KT 10SM CLR 10/02 A2985 RMK AO1

More Conditions Fewer Conditions

10-Day Weather Forecast

Almanac

Astronomy

Oct. 23, 2014 Rise Set
Actual Time 7:29 AM MDT 5:55 PM MDT
Civil Twilight 6:58 AM MDT 6:27 PM MDT
Nautical Twilight 6:22 AM MDT 7:03 PM MDT
Astronomical Twilight 5:46 AM MDT 7:39 PM MDT
Moon 7:10 AM MDT 5:58 PM MDT
Length of Visible Light 11h 29m
Length of Day
10h 26m
Tomorrow will be 3m 15s shorter.
Waning Crescent, 0% of the Moon is Illuminated
Today
Waning Crescent
Oct 23
New
Oct 30
First Quarter
Nov 6
Full
Nov 14
Last Quarter

Today's Extremes

State Highs State Lows

Community

WunderPhotos

Upload Photos

1,764,308 photos uploaded!

WunderBlogs® & News

Nearby

Snow Depth

Station Depth Elevation
Crystal Lake 0 in 6050 ft
Daisy Peak 0 in 7600 ft
Spur Park 0 in 8100 ft
Burnt Mountain 0 in 5880 ft
Deadman Creek 0 in 6450 ft

Earthquake Activity

City Distance Mag. Time & Date
No recent earthquake activity has been reported nearby.
Minimum magnitude displayed is 2.5.

Coastal Water Temperatures

Place Temperature
No Stations Reporting

Nearby Weather Stations